Flight Track Log - Related Links

Times and Time Zones

All times are in EDT time to prevent confusion due to time zone crossing. See the DAL2254 flight status page for this flight to view local times or setup timezone preferences in your user account.

Time Position Orientation Groundspeed Altitude Reporting Facility
EDT Latitude Longitude Course Direction KTS MPH feet Rate Location/Type
Sun 07:36:15 AM 34.3131 -77.8969 253° West 235 270 2,000  Level Washington Center
Sun 07:37:16 AM 34.3325 -77.9742 287° West 231 266 4,700 3,168 Climbing Washington Center
Sun 07:38:00 AM 34.3141 -78.2976 264° West  Level FlightAware Approximate
Sun 07:38:20 AM 34.3478 -78.0622 282° West 254 292 8,600  Level Washington Center
Sun 07:39:00 AM 34.3029 -78.4323 264° West  Level FlightAware Approximate
Sun 07:39:20 AM 34.3864 -78.1717 293° West 283 326 12,000  Level Washington Center
Sun 07:40:00 AM 34.3000 -78.5674 270° West  Level FlightAware Approximate
Sun 07:40:22 AM 34.4225 -78.2703 294° West 306 352 15,100  Level Washington Center
Sun 07:41:00 AM 34.3444 -77.8890 253° West  Level FlightAware Approximate
Sun 07:41:22 AM 34.4561 -78.3758 291° West 327 376 17,900  Level Washington Center
Sun 07:42:26 AM 34.4928 -78.4856 292° West 345 397 20,200 2,081 Climbing Washington Center
Sun 07:43:26 AM 34.5292 -78.5972 292° West 353 406 22,200 1,550 Climbing Washington Center
Sun 07:44:26 AM 34.4883 -78.7539 252° West 396 456 23,300 1,650 Climbing Jacksonville Center
Sun 07:45:26 AM 34.4567 -78.8736 252° West 408 470 25,500 1,900 Climbing Jacksonville Center
Sun 07:46:26 AM 34.4169 -79.0039 250° West 413 475 27,100 1,500 Climbing Jacksonville Center
Sun 07:47:26 AM 34.3794 -79.1439 252° West 424 488 28,500 1,250 Climbing Jacksonville Center
Sun 07:48:26 AM 34.3397 -79.2814 251° West 434 499 29,600 750 Climbing Jacksonville Center
Sun 07:49:26 AM 34.2978 -79.4214 250° West 440 506 30,000 200 Climbing Jacksonville Center
Sun 07:50:26 AM 34.2578 -79.5611 251° West 440 506 30,000 -50 Level Jacksonville Center
Sun 07:51:26 AM 34.2200 -79.7158 254° West 440 506 29,900  Descending Jacksonville Center
Sun 07:52:26 AM 34.1839 -79.8578 253° West 445 512 30,000 50 Climbing Jacksonville Center
Sun 07:53:26 AM 34.1456 -80.0019 252° West 451 519 30,000  Level Jacksonville Center
Sun 07:54:26 AM 34.1069 -80.1414 252° West 446 513 30,000 50 Level Jacksonville Center
Sun 07:55:26 AM 34.0681 -80.2803 251° West 446 513 30,100 850 Climbing Jacksonville Center
Sun 07:56:26 AM 34.0333 -80.4217 254° West 446 513 31,700 950 Climbing Jacksonville Center
Sun 07:57:26 AM 33.9944 -80.5606 251° West 446 513 32,000 800 Climbing Jacksonville Center
Sun 07:58:26 AM 33.9572 -80.6967 252° West 446 513 33,300 1,150 Climbing Jacksonville Center
Sun 07:59:26 AM 33.9197 -80.8328 252° West 446 513 34,300 1,150 Climbing Jacksonville Center
Sun 08:00:26 AM 33.8822 -80.9689 252° West 446 513 35,600 850 Climbing Jacksonville Center
Sun 08:01:26 AM 33.8467 -81.1022 252° West 435 501 36,000 129 Climbing Jacksonville Center
Sun 08:03:32 AM 33.7611 -81.3703 249° West 428 493 36,000  Level Atlanta Center
Sun 08:04:32 AM 33.7200 -81.5064 250° West 433 498 36,000  Level Atlanta Center
Sun 08:05:32 AM 33.6811 -81.6372 250° West 433 498 36,000  Level Atlanta Center
Sun 08:06:32 AM 33.6417 -81.7706 250° West 433 498 36,000  Level Atlanta Center
Sun 08:07:32 AM 33.6044 -81.9014 251° West 433 498 36,000 -450 Level Atlanta Center
Sun 08:08:32 AM 33.5628 -82.0344 249° West 433 498 35,100 -950 Descending Atlanta Center
Sun 08:09:32 AM 33.5233 -82.1675 250° West 433 498 34,100 -1,050 Descending Atlanta Center
Sun 08:10:32 AM 33.4814 -82.3078 250° West 433 498 33,000 -1,000 Descending Atlanta Center
Sun 08:11:32 AM 33.4436 -82.4381 251° West 433 498 32,100 -1,000 Descending Atlanta Center
Sun 08:12:32 AM 33.4014 -82.5756 250° West 432 497 31,000 -1,050 Descending Atlanta Center
Sun 08:13:32 AM 33.3531 -82.7258 249° West 432 497 30,000 -950 Descending Atlanta Center
Sun 08:14:32 AM 33.3167 -82.8481 250° West 432 497 29,100 -1,000 Descending Atlanta Center
Sun 08:15:32 AM 33.2742 -82.9928 251° West 432 497 28,000 -1,050 Descending Atlanta Center
Sun 08:16:32 AM 33.2314 -83.1250 249° West 432 497 27,000 -1,000 Descending Atlanta Center
Sun 08:17:32 AM 33.1906 -83.2594 250° West 432 497 26,000 -1,600 Descending Atlanta Center
Sun 08:18:32 AM 33.1475 -83.3889 248° West 437 503 23,800 -2,450 Descending Atlanta Center
Sun 08:19:32 AM 33.1106 -83.5106 250° West 415 478 21,100 -2,800 Descending Atlanta Center
Sun 08:20:32 AM 33.1028 -83.6347 266° West 399 459 18,200 -2,700 Descending Atlanta Center
Sun 08:21:32 AM 33.1697 -83.7386 308° West 364 419 15,700 -1,867 Descending Atlanta Center
Sun 08:22:47 AM 33.2500 -83.8500 311° West 385 443 14,000 -850 Descending Atlanta TRACON
Sun 08:23:32 AM 33.2953 -83.9269 305° West 387 445 14,000  Level Atlanta Center
Sun 08:24:32 AM 33.3642 -84.0289 309° West 392 451 14,000 -450 Level Atlanta Center
Sun 08:25:32 AM 33.4539 -84.0936 329° Northwest 382 440 13,100 -950 Descending Atlanta Center
Sun 08:26:32 AM 33.5394 -84.1508 331° Northwest 362 417 12,100 -550 Descending Atlanta Center
Sun 08:27:32 AM 33.5978 -84.2283 312° West 320 368 12,000 -50 Descending Atlanta Center
Sun 08:28:32 AM 33.6519 -84.3108 308° West 297 342 12,000 -300 Level Atlanta Center
Sun 08:29:32 AM 33.6956 -84.3783 308° West 266 306 11,400 -1,447 Descending Atlanta Center
Sun 08:30:53 AM 33.7333 -84.4833 293° West 244 281 8,600 -1,447 Descending Atlanta TRACON
Sun 08:31:53 AM 33.7333 -84.5500 270° West 236 272 8,000 -1,000 Descending Atlanta TRACON
Sun 08:32:47 AM 33.7333 -84.6167 270° West 228 262 6,700 -1,526 Descending Atlanta TRACON
Sun 08:33:47 AM 33.7333 -84.7000 270° West 223 257 5,100 -850 Descending Atlanta TRACON
Sun 08:34:47 AM 33.6833 -84.7000 180° South 219 252 5,000 -550 Descending Atlanta TRACON
Sun 08:35:47 AM 33.6667 -84.6333 107° East 228 262 4,000 -950 Descending Atlanta TRACON
Sun 08:36:47 AM 33.6500 -84.5500 103° East 224 258 3,100 -1,050 Descending Atlanta TRACON
Sun 08:37:47 AM 33.6500 -84.5000 90° East 178 205 1,900 -500 Descending Atlanta TRACON
Sun 08:38:47 AM 33.6500 -84.4500 90° East 162 186 2,100 1,000 Climbing Atlanta TRACON
Sun 08:39:53 AM 33.7167 -84.4333 12° North 237 273 4,000 857 Climbing Atlanta TRACON
Sun 08:40:53 AM 33.7333 -84.5000 287° West 218 251 3,900  Descending Atlanta TRACON
Sun 08:41:53 AM 33.7500 -84.5667 287° West 211 243 4,000 50 Climbing Atlanta TRACON
Sun 08:42:53 AM 33.7167 -84.6000 220° Southwest 210 242 4,000 -526 Level Atlanta TRACON
Sun 08:43:47 AM 33.6667 -84.5833 164° South 205 236 3,000 -842 Descending Atlanta TRACON
Sun 08:44:47 AM 33.6500 -84.5333 112° Southeast 180 207 2,400 -700 Descending Atlanta TRACON
Sun 08:45:47 AM 33.6500 -84.4833 90° East 151 174 1,600 -800 Descending Atlanta TRACON

Login

Don't have an account? Register now (free) for customized features, flight alerts, and more!